sensor_id;sensor_type;location;lat;lon;timestamp;P1;durP1;ratioP1;P2;durP2;ratioP2
11414;SDS011;5763;42.714;23.244;2022-10-26T00:00:51;11.88;;;4.63;;
11414;SDS011;5763;42.714;23.244;2022-10-26T00:03:18;12.30;;;5.20;;
11414;SDS011;5763;42.714;23.244;2022-10-26T00:05:45;9.95;;;4.93;;
11414;SDS011;5763;42.714;23.244;2022-10-26T00:08:12;9.73;;;4.68;;
11414;SDS011;5763;42.714;23.244;2022-10-26T00:10:38;6.78;;;4.80;;
11414;SDS011;5763;42.714;23.244;2022-10-26T00:13:07;10.35;;;4.65;;
11414;SDS011;5763;42.714;23.244;2022-10-26T00:15:38;9.52;;;4.80;;
11414;SDS011;5763;42.714;23.244;2022-10-26T00:18:08;7.32;;;4.47;;
11414;SDS011;5763;42.714;23.244;2022-10-26T00:20:35;9.23;;;4.47;;
11414;SDS011;5763;42.714;23.244;2022-10-26T00:23:02;9.02;;;4.72;;
11414;SDS011;5763;42.714;23.244;2022-10-26T00:25:28;6.22;;;4.53;;
11414;SDS011;5763;42.714;23.244;2022-10-26T00:27:55;10.82;;;5.00;;
11414;SDS011;5763;42.714;23.244;2022-10-26T00:30:22;10.25;;;4.78;;
11414;SDS011;5763;42.714;23.244;2022-10-26T00:32:49;8.82;;;4.65;;
11414;SDS011;5763;42.714;23.244;2022-10-26T00:35:17;6.82;;;4.78;;
11414;SDS011;5763;42.714;23.244;2022-10-26T00:37:44;6.60;;;4.13;;
11414;SDS011;5763;42.714;23.244;2022-10-26T00:40:11;7.90;;;4.47;;
11414;SDS011;5763;42.714;23.244;2022-10-26T00:42:38;8.52;;;4.20;;
11414;SDS011;5763;42.714;23.244;2022-10-26T00:45:06;7.93;;;4.72;;
11414;SDS011;5763;42.714;23.244;2022-10-26T00:47:44;5.55;;;4.07;;
11414;SDS011;5763;42.714;23.244;2022-10-26T00:50:14;9.85;;;4.65;;
11414;SDS011;5763;42.714;23.244;2022-10-26T00:52:46;8.80;;;4.60;;
11414;SDS011;5763;42.714;23.244;2022-10-26T00:55:13;8.98;;;4.80;;
11414;SDS011;5763;42.714;23.244;2022-10-26T00:57:45;7.57;;;4.57;;
11414;SDS011;5763;42.714;23.244;2022-10-26T01:00:13;11.00;;;4.78;;
11414;SDS011;5763;42.714;23.244;2022-10-26T01:02:40;8.23;;;4.80;;
11414;SDS011;5763;42.714;23.244;2022-10-26T01:05:08;7.10;;;4.38;;
11414;SDS011;5763;42.714;23.244;2022-10-26T01:07:38;10.00;;;4.70;;
11414;SDS011;5763;42.714;23.244;2022-10-26T01:10:06;9.25;;;4.68;;
11414;SDS011;5763;42.714;23.244;2022-10-26T01:12:34;6.90;;;4.40;;
11414;SDS011;5763;42.714;23.244;2022-10-26T01:15:02;7.60;;;4.28;;
11414;SDS011;5763;42.714;23.244;2022-10-26T01:17:34;5.85;;;3.95;;
11414;SDS011;5763;42.714;23.244;2022-10-26T01:20:43;9.57;;;4.20;;
11414;SDS011;5763;42.714;23.244;2022-10-26T01:23:28;8.18;;;4.03;;
11414;SDS011;5763;42.714;23.244;2022-10-26T01:26:07;6.10;;;3.72;;
11414;SDS011;5763;42.714;23.244;2022-10-26T01:28:57;8.63;;;4.30;;
11414;SDS011;5763;42.714;23.244;2022-10-26T01:31:39;6.22;;;3.90;;
11414;SDS011;5763;42.714;23.244;2022-10-26T01:34:09;5.63;;;4.00;;
11414;SDS011;5763;42.714;23.244;2022-10-26T01:36:40;6.57;;;4.10;;
11414;SDS011;5763;42.714;23.244;2022-10-26T01:39:13;5.38;;;4.32;;
11414;SDS011;5763;42.714;23.244;2022-10-26T01:41:43;6.63;;;4.10;;
11414;SDS011;5763;42.714;23.244;2022-10-26T01:44:14;8.88;;;3.80;;
11414;SDS011;5763;42.714;23.244;2022-10-26T01:46:47;5.07;;;3.88;;
11414;SDS011;5763;42.714;23.244;2022-10-26T01:49:18;7.35;;;3.78;;
11414;SDS011;5763;42.714;23.244;2022-10-26T01:51:48;6.88;;;3.88;;
11414;SDS011;5763;42.714;23.244;2022-10-26T01:54:15;8.98;;;4.18;;
11414;SDS011;5763;42.714;23.244;2022-10-26T01:56:43;12.23;;;4.13;;
11414;SDS011;5763;42.714;23.244;2022-10-26T01:59:21;6.47;;;4.13;;
11414;SDS011;5763;42.714;23.244;2022-10-26T02:02:17;10.40;;;4.07;;
11414;SDS011;5763;42.714;23.244;2022-10-26T02:08:04;8.73;;;4.78;;
11414;SDS011;5763;42.714;23.244;2022-10-26T02:10:43;8.18;;;4.20;;
11414;SDS011;5763;42.714;23.244;2022-10-26T02:13:17;8.25;;;4.65;;
11414;SDS011;5763;42.714;23.244;2022-10-26T02:15:53;6.03;;;4.28;;
11414;SDS011;5763;42.714;23.244;2022-10-26T02:18:28;8.77;;;4.78;;
11414;SDS011;5763;42.714;23.244;2022-10-26T02:20:58;7.15;;;4.00;;
11414;SDS011;5763;42.714;23.244;2022-10-26T02:23:28;7.72;;;4.45;;
11414;SDS011;5763;42.714;23.244;2022-10-26T02:26:00;8.02;;;4.32;;
11414;SDS011;5763;42.714;23.244;2022-10-26T02:28:31;6.28;;;4.40;;
11414;SDS011;5763;42.714;23.244;2022-10-26T02:31:00;6.50;;;4.53;;
11414;SDS011;5763;42.714;23.244;2022-10-26T02:33:31;6.68;;;4.43;;
11414;SDS011;5763;42.714;23.244;2022-10-26T02:36:02;8.13;;;4.53;;
11414;SDS011;5763;42.714;23.244;2022-10-26T02:38:32;9.05;;;4.60;;
11414;SDS011;5763;42.714;23.244;2022-10-26T02:41:01;11.23;;;5.47;;
11414;SDS011;5763;42.714;23.244;2022-10-26T02:43:30;7.82;;;5.07;;
11414;SDS011;5763;42.714;23.244;2022-10-26T03:07:20;6.43;;;4.82;;
11414;SDS011;5763;42.714;23.244;2022-10-26T03:09:47;9.05;;;5.43;;
11414;SDS011;5763;42.714;23.244;2022-10-26T03:12:14;10.90;;;6.13;;
11414;SDS011;5763;42.714;23.244;2022-10-26T03:14:41;8.23;;;5.18;;
11414;SDS011;5763;42.714;23.244;2022-10-26T03:17:08;9.68;;;5.93;;
11414;SDS011;5763;42.714;23.244;2022-10-26T03:19:34;9.55;;;5.78;;
11414;SDS011;5763;42.714;23.244;2022-10-26T03:22:01;7.90;;;5.50;;
11414;SDS011;5763;42.714;23.244;2022-10-26T03:24:29;9.38;;;5.38;;
11414;SDS011;5763;42.714;23.244;2022-10-26T03:26:56;10.35;;;5.82;;
11414;SDS011;5763;42.714;23.244;2022-10-26T03:29:22;6.90;;;5.57;;
11414;SDS011;5763;42.714;23.244;2022-10-26T03:31:49;10.57;;;5.55;;
11414;SDS011;5763;42.714;23.244;2022-10-26T03:34:18;7.72;;;4.63;;
11414;SDS011;5763;42.714;23.244;2022-10-26T03:36:45;8.13;;;5.60;;
11414;SDS011;5763;42.714;23.244;2022-10-26T03:39:12;8.02;;;4.97;;
11414;SDS011;5763;42.714;23.244;2022-10-26T03:41:40;6.95;;;5.10;;
11414;SDS011;5763;42.714;23.244;2022-10-26T03:44:08;6.55;;;5.05;;
11414;SDS011;5763;42.714;23.244;2022-10-26T03:46:35;6.75;;;5.07;;
11414;SDS011;5763;42.714;23.244;2022-10-26T03:49:02;8.18;;;5.35;;
11414;SDS011;5763;42.714;23.244;2022-10-26T03:51:28;9.45;;;4.88;;
11414;SDS011;5763;42.714;23.244;2022-10-26T03:53:55;11.50;;;5.47;;
11414;SDS011;5763;42.714;23.244;2022-10-26T03:56:22;8.45;;;4.95;;
11414;SDS011;5763;42.714;23.244;2022-10-26T03:58:50;8.43;;;4.78;;
11414;SDS011;5763;42.714;23.244;2022-10-26T04:01:17;9.32;;;5.28;;
11414;SDS011;5763;42.714;23.244;2022-10-26T04:03:43;8.25;;;4.63;;
11414;SDS011;5763;42.714;23.244;2022-10-26T04:06:10;7.93;;;5.47;;
11414;SDS011;5763;42.714;23.244;2022-10-26T04:08:37;8.23;;;4.85;;
11414;SDS011;5763;42.714;23.244;2022-10-26T04:11:04;9.70;;;5.10;;
11414;SDS011;5763;42.714;23.244;2022-10-26T04:13:30;10.90;;;5.32;;
11414;SDS011;5763;42.714;23.244;2022-10-26T04:15:59;11.43;;;5.60;;
11414;SDS011;5763;42.714;23.244;2022-10-26T04:18:26;9.43;;;5.07;;
11414;SDS011;5763;42.714;23.244;2022-10-26T04:20:52;10.57;;;5.60;;
11414;SDS011;5763;42.714;23.244;2022-10-26T04:23:19;8.18;;;5.20;;
11414;SDS011;5763;42.714;23.244;2022-10-26T04:25:46;9.45;;;5.32;;
11414;SDS011;5763;42.714;23.244;2022-10-26T04:28:13;10.43;;;5.63;;
11414;SDS011;5763;42.714;23.244;2022-10-26T04:30:40;6.45;;;5.15;;
11414;SDS011;5763;42.714;23.244;2022-10-26T04:33:08;9.50;;;5.20;;
11414;SDS011;5763;42.714;23.244;2022-10-26T04:35:35;9.70;;;5.10;;
11414;SDS011;5763;42.714;23.244;2022-10-26T04:38:02;9.88;;;5.15;;
11414;SDS011;5763;42.714;23.244;2022-10-26T04:40:31;8.07;;;4.03;;
11414;SDS011;5763;42.714;23.244;2022-10-26T04:42:59;8.93;;;5.10;;
11414;SDS011;5763;42.714;23.244;2022-10-26T04:45:25;8.85;;;4.68;;
11414;SDS011;5763;42.714;23.244;2022-10-26T04:47:58;6.07;;;4.70;;
11414;SDS011;5763;42.714;23.244;2022-10-26T04:50:26;6.72;;;5.03;;
11414;SDS011;5763;42.714;23.244;2022-10-26T04:52:53;8.82;;;4.72;;
11414;SDS011;5763;42.714;23.244;2022-10-26T04:55:20;6.18;;;5.07;;
11414;SDS011;5763;42.714;23.244;2022-10-26T04:57:47;7.00;;;4.90;;
11414;SDS011;5763;42.714;23.244;2022-10-26T05:00:14;7.15;;;5.20;;
11414;SDS011;5763;42.714;23.244;2022-10-26T05:02:41;6.63;;;4.63;;
11414;SDS011;5763;42.714;23.244;2022-10-26T05:05:08;9.45;;;4.78;;
11414;SDS011;5763;42.714;23.244;2022-10-26T05:07:36;7.57;;;5.22;;
11414;SDS011;5763;42.714;23.244;2022-10-26T05:10:03;7.53;;;4.88;;
11414;SDS011;5763;42.714;23.244;2022-10-26T05:12:30;8.32;;;5.10;;
11414;SDS011;5763;42.714;23.244;2022-10-26T05:14:57;7.93;;;4.70;;
11414;SDS011;5763;42.714;23.244;2022-10-26T05:17:23;6.95;;;4.55;;
11414;SDS011;5763;42.714;23.244;2022-10-26T05:19:50;7.70;;;4.63;;
11414;SDS011;5763;42.714;23.244;2022-10-26T05:22:19;7.93;;;4.47;;
11414;SDS011;5763;42.714;23.244;2022-10-26T05:24:48;9.98;;;5.10;;
11414;SDS011;5763;42.714;23.244;2022-10-26T05:27:14;8.60;;;4.65;;
11414;SDS011;5763;42.714;23.244;2022-10-26T05:29:41;8.43;;;5.10;;
11414;SDS011;5763;42.714;23.244;2022-10-26T05:32:08;6.90;;;5.10;;
11414;SDS011;5763;42.714;23.244;2022-10-26T05:34:35;8.40;;;4.82;;
11414;SDS011;5763;42.714;23.244;2022-10-26T05:37:02;9.27;;;4.80;;
11414;SDS011;5763;42.714;23.244;2022-10-26T05:39:29;6.15;;;5.05;;
11414;SDS011;5763;42.714;23.244;2022-10-26T05:41:57;7.68;;;5.15;;
11414;SDS011;5763;42.714;23.244;2022-10-26T05:44:23;6.03;;;4.70;;
11414;SDS011;5763;42.714;23.244;2022-10-26T05:46:51;8.93;;;4.82;;
11414;SDS011;5763;42.714;23.244;2022-10-26T05:49:18;9.52;;;5.28;;
11414;SDS011;5763;42.714;23.244;2022-10-26T05:51:44;7.25;;;5.53;;
11414;SDS011;5763;42.714;23.244;2022-10-26T05:54:11;9.80;;;5.97;;
11414;SDS011;5763;42.714;23.244;2022-10-26T05:56:38;13.45;;;7.32;;
11414;SDS011;5763;42.714;23.244;2022-10-26T05:59:11;10.07;;;6.78;;
11414;SDS011;5763;42.714;23.244;2022-10-26T06:01:43;10.50;;;6.43;;
11414;SDS011;5763;42.714;23.244;2022-10-26T06:04:20;10.77;;;6.13;;
11414;SDS011;5763;42.714;23.244;2022-10-26T06:06:56;8.57;;;5.05;;
11414;SDS011;5763;42.714;23.244;2022-10-26T06:09:25;8.75;;;5.45;;
11414;SDS011;5763;42.714;23.244;2022-10-26T06:11:54;7.95;;;5.30;;
11414;SDS011;5763;42.714;23.244;2022-10-26T06:14:25;11.13;;;5.63;;
11414;SDS011;5763;42.714;23.244;2022-10-26T06:16:59;8.07;;;4.78;;
11414;SDS011;5763;42.714;23.244;2022-10-26T06:19:47;7.32;;;5.20;;
11414;SDS011;5763;42.714;23.244;2022-10-26T06:22:30;10.45;;;6.10;;
11414;SDS011;5763;42.714;23.244;2022-10-26T06:25:10;10.57;;;5.25;;
11414;SDS011;5763;42.714;23.244;2022-10-26T06:27:46;9.48;;;4.97;;
11414;SDS011;5763;42.714;23.244;2022-10-26T06:30:24;7.07;;;4.82;;
11414;SDS011;5763;42.714;23.244;2022-10-26T06:32:52;7.63;;;5.10;;
11414;SDS011;5763;42.714;23.244;2022-10-26T06:35:23;7.72;;;5.07;;
11414;SDS011;5763;42.714;23.244;2022-10-26T06:37:57;6.03;;;4.80;;
11414;SDS011;5763;42.714;23.244;2022-10-26T06:40:29;4.65;;;4.10;;
11414;SDS011;5763;42.714;23.244;2022-10-26T06:43:00;7.72;;;4.60;;
11414;SDS011;5763;42.714;23.244;2022-10-26T06:45:31;7.07;;;4.93;;
11414;SDS011;5763;42.714;23.244;2022-10-26T06:47:59;6.22;;;4.80;;
11414;SDS011;5763;42.714;23.244;2022-10-26T06:50:34;6.53;;;4.38;;
11414;SDS011;5763;42.714;23.244;2022-10-26T06:53:11;8.93;;;5.10;;
11414;SDS011;5763;42.714;23.244;2022-10-26T06:55:47;10.25;;;5.55;;
11414;SDS011;5763;42.714;23.244;2022-10-26T06:58:17;9.15;;;4.68;;
11414;SDS011;5763;42.714;23.244;2022-10-26T07:00:48;9.63;;;4.95;;
11414;SDS011;5763;42.714;23.244;2022-10-26T07:03:18;6.68;;;4.47;;
11414;SDS011;5763;42.714;23.244;2022-10-26T07:05:45;8.23;;;4.88;;
11414;SDS011;5763;42.714;23.244;2022-10-26T07:08:13;6.30;;;4.50;;
11414;SDS011;5763;42.714;23.244;2022-10-26T07:10:41;8.25;;;4.47;;
11414;SDS011;5763;42.714;23.244;2022-10-26T07:13:10;6.18;;;4.28;;
11414;SDS011;5763;42.714;23.244;2022-10-26T07:15:38;7.47;;;4.47;;
11414;SDS011;5763;42.714;23.244;2022-10-26T07:18:08;7.57;;;4.63;;
11414;SDS011;5763;42.714;23.244;2022-10-26T07:20:37;6.03;;;4.57;;
11414;SDS011;5763;42.714;23.244;2022-10-26T07:23:06;6.40;;;3.95;;
11414;SDS011;5763;42.714;23.244;2022-10-26T07:25:36;7.15;;;4.43;;
11414;SDS011;5763;42.714;23.244;2022-10-26T07:28:05;11.85;;;4.55;;
11414;SDS011;5763;42.714;23.244;2022-10-26T07:30:34;6.25;;;4.32;;
11414;SDS011;5763;42.714;23.244;2022-10-26T07:33:04;6.63;;;4.68;;
11414;SDS011;5763;42.714;23.244;2022-10-26T07:35:35;6.40;;;4.82;;
11414;SDS011;5763;42.714;23.244;2022-10-26T07:38:03;6.60;;;4.00;;
11414;SDS011;5763;42.714;23.244;2022-10-26T07:40:31;8.90;;;4.38;;
11414;SDS011;5763;42.714;23.244;2022-10-26T07:43:00;8.18;;;4.72;;
11414;SDS011;5763;42.714;23.244;2022-10-26T07:45:27;7.18;;;4.13;;
11414;SDS011;5763;42.714;23.244;2022-10-26T07:47:56;4.47;;;3.45;;
11414;SDS011;5763;42.714;23.244;2022-10-26T07:50:24;5.40;;;3.30;;
11414;SDS011;5763;42.714;23.244;2022-10-26T07:52:54;5.25;;;3.67;;
11414;SDS011;5763;42.714;23.244;2022-10-26T07:55:24;7.50;;;3.85;;
11414;SDS011;5763;42.714;23.244;2022-10-26T07:57:53;5.65;;;3.03;;
11414;SDS011;5763;42.714;23.244;2022-10-26T08:00:21;4.85;;;3.50;;
11414;SDS011;5763;42.714;23.244;2022-10-26T08:02:50;6.47;;;3.83;;
11414;SDS011;5763;42.714;23.244;2022-10-26T08:05:18;6.55;;;3.50;;
11414;SDS011;5763;42.714;23.244;2022-10-26T08:07:46;5.07;;;3.13;;
11414;SDS011;5763;42.714;23.244;2022-10-26T08:10:15;4.57;;;3.30;;
11414;SDS011;5763;42.714;23.244;2022-10-26T08:12:43;5.70;;;2.92;;
11414;SDS011;5763;42.714;23.244;2022-10-26T08:15:11;4.38;;;3.15;;
11414;SDS011;5763;42.714;23.244;2022-10-26T08:17:41;4.85;;;3.25;;
11414;SDS011;5763;42.714;23.244;2022-10-26T08:20:09;5.45;;;2.65;;
11414;SDS011;5763;42.714;23.244;2022-10-26T08:22:46;4.22;;;2.70;;
11414;SDS011;5763;42.714;23.244;2022-10-26T08:25:19;5.07;;;3.05;;
11414;SDS011;5763;42.714;23.244;2022-10-26T08:27:51;5.28;;;2.80;;
11414;SDS011;5763;42.714;23.244;2022-10-26T08:30:19;5.53;;;2.50;;
11414;SDS011;5763;42.714;23.244;2022-10-26T08:32:47;4.00;;;2.60;;
11414;SDS011;5763;42.714;23.244;2022-10-26T08:35:15;5.20;;;2.63;;
11414;SDS011;5763;42.714;23.244;2022-10-26T08:37:43;3.75;;;2.47;;
11414;SDS011;5763;42.714;23.244;2022-10-26T08:40:14;3.03;;;2.65;;
11414;SDS011;5763;42.714;23.244;2022-10-26T08:42:44;3.50;;;2.40;;
11414;SDS011;5763;42.714;23.244;2022-10-26T08:45:19;6.28;;;2.80;;
11414;SDS011;5763;42.714;23.244;2022-10-26T08:47:53;4.20;;;2.25;;
11414;SDS011;5763;42.714;23.244;2022-10-26T08:50:26;4.28;;;2.53;;
11414;SDS011;5763;42.714;23.244;2022-10-26T08:52:57;2.70;;;1.90;;
11414;SDS011;5763;42.714;23.244;2022-10-26T08:55:30;4.57;;;2.45;;
11414;SDS011;5763;42.714;23.244;2022-10-26T08:58:05;4.88;;;2.17;;
11414;SDS011;5763;42.714;23.244;2022-10-26T09:00:39;5.20;;;2.28;;
11414;SDS011;5763;42.714;23.244;2022-10-26T09:03:10;3.10;;;2.20;;
11414;SDS011;5763;42.714;23.244;2022-10-26T09:05:45;4.40;;;2.53;;
11414;SDS011;5763;42.714;23.244;2022-10-26T09:08:24;4.75;;;2.75;;
11414;SDS011;5763;42.714;23.244;2022-10-26T09:11:03;2.88;;;2.17;;
11414;SDS011;5763;42.714;23.244;2022-10-26T09:13:41;4.13;;;2.30;;
11414;SDS011;5763;42.714;23.244;2022-10-26T09:16:21;4.22;;;2.10;;
11414;SDS011;5763;42.714;23.244;2022-10-26T09:18:56;3.33;;;2.40;;
11414;SDS011;5763;42.714;23.244;2022-10-26T09:21:35;4.57;;;2.53;;
11414;SDS011;5763;42.714;23.244;2022-10-26T09:24:11;3.80;;;2.22;;
11414;SDS011;5763;42.714;23.244;2022-10-26T09:26:43;3.88;;;2.42;;
11414;SDS011;5763;42.714;23.244;2022-10-26T09:29:20;3.78;;;2.58;;
11414;SDS011;5763;42.714;23.244;2022-10-26T09:31:52;5.18;;;2.08;;
11414;SDS011;5763;42.714;23.244;2022-10-26T09:34:24;2.17;;;1.80;;
11414;SDS011;5763;42.714;23.244;2022-10-26T09:36:56;3.20;;;2.25;;
11414;SDS011;5763;42.714;23.244;2022-10-26T09:39:26;3.33;;;2.05;;
11414;SDS011;5763;42.714;23.244;2022-10-26T09:41:59;4.32;;;2.00;;
11414;SDS011;5763;42.714;23.244;2022-10-26T09:44:35;3.35;;;2.10;;
11414;SDS011;5763;42.714;23.244;2022-10-26T09:47:09;3.33;;;2.00;;
11414;SDS011;5763;42.714;23.244;2022-10-26T09:49:46;6.40;;;2.08;;
11414;SDS011;5763;42.714;23.244;2022-10-26T09:52:18;2.33;;;2.03;;
11414;SDS011;5763;42.714;23.244;2022-10-26T09:54:45;3.67;;;2.08;;
11414;SDS011;5763;42.714;23.244;2022-10-26T09:57:12;3.08;;;2.15;;
11414;SDS011;5763;42.714;23.244;2022-10-26T09:59:42;5.07;;;2.30;;
11414;SDS011;5763;42.714;23.244;2022-10-26T10:04:57;4.45;;;1.90;;
11414;SDS011;5763;42.714;23.244;2022-10-26T10:07:24;3.63;;;2.00;;
11414;SDS011;5763;42.714;23.244;2022-10-26T10:10:05;4.28;;;1.90;;
11414;SDS011;5763;42.714;23.244;2022-10-26T10:12:33;3.47;;;2.03;;
11414;SDS011;5763;42.714;23.244;2022-10-26T10:15:01;3.58;;;1.98;;
11414;SDS011;5763;42.714;23.244;2022-10-26T10:17:29;3.95;;;2.22;;
11414;SDS011;5763;42.714;23.244;2022-10-26T10:19:59;3.17;;;1.83;;
11414;SDS011;5763;42.714;23.244;2022-10-26T10:22:36;3.67;;;1.98;;
11414;SDS011;5763;42.714;23.244;2022-10-26T10:25:26;4.20;;;1.75;;
11414;SDS011;5763;42.714;23.244;2022-10-26T10:28:18;5.47;;;1.58;;
11414;SDS011;5763;42.714;23.244;2022-10-26T10:30:52;3.55;;;1.90;;
11414;SDS011;5763;42.714;23.244;2022-10-26T10:33:26;2.80;;;1.65;;
11414;SDS011;5763;42.714;23.244;2022-10-26T10:35:58;4.15;;;1.77;;
11414;SDS011;5763;42.714;23.244;2022-10-26T10:38:26;2.25;;;1.63;;
11414;SDS011;5763;42.714;23.244;2022-10-26T10:40:54;3.22;;;2.00;;
11414;SDS011;5763;42.714;23.244;2022-10-26T10:43:23;2.30;;;1.75;;
11414;SDS011;5763;42.714;23.244;2022-10-26T10:45:53;3.15;;;1.50;;
11414;SDS011;5763;42.714;23.244;2022-10-26T10:48:23;3.83;;;1.40;;
11414;SDS011;5763;42.714;23.244;2022-10-26T10:50:52;3.05;;;1.67;;
11414;SDS011;5763;42.714;23.244;2022-10-26T10:53:22;3.13;;;1.40;;
11414;SDS011;5763;42.714;23.244;2022-10-26T10:56:08;2.60;;;1.63;;
11414;SDS011;5763;42.714;23.244;2022-10-26T10:58:49;2.05;;;1.60;;
11414;SDS011;5763;42.714;23.244;2022-10-26T11:01:28;2.97;;;1.70;;
11414;SDS011;5763;42.714;23.244;2022-10-26T11:04:01;2.70;;;1.40;;
11414;SDS011;5763;42.714;23.244;2022-10-26T11:06:53;2.88;;;1.48;;
11414;SDS011;5763;42.714;23.244;2022-10-26T11:09:26;2.38;;;1.70;;
11414;SDS011;5763;42.714;23.244;2022-10-26T11:11:56;1.58;;;1.30;;
11414;SDS011;5763;42.714;23.244;2022-10-26T11:14:28;7.25;;;1.30;;
11414;SDS011;5763;42.714;23.244;2022-10-26T11:17:04;3.53;;;1.55;;
11414;SDS011;5763;42.714;23.244;2022-10-26T11:19:39;3.85;;;1.35;;
11414;SDS011;5763;42.714;23.244;2022-10-26T11:22:12;2.88;;;1.83;;
11414;SDS011;5763;42.714;23.244;2022-10-26T11:24:42;1.70;;;1.35;;
11414;SDS011;5763;42.714;23.244;2022-10-26T11:27:14;3.50;;;1.60;;
11414;SDS011;5763;42.714;23.244;2022-10-26T11:29:43;1.50;;;1.20;;
11414;SDS011;5763;42.714;23.244;2022-10-26T11:32:20;1.75;;;1.33;;
11414;SDS011;5763;42.714;23.244;2022-10-26T11:34:50;1.95;;;1.50;;
11414;SDS011;5763;42.714;23.244;2022-10-26T11:37:23;2.05;;;1.00;;
11414;SDS011;5763;42.714;23.244;2022-10-26T11:40:02;1.13;;;1.02;;
11414;SDS011;5763;42.714;23.244;2022-10-26T11:42:39;1.85;;;1.50;;
11414;SDS011;5763;42.714;23.244;2022-10-26T11:45:13;1.67;;;0.90;;
11414;SDS011;5763;42.714;23.244;2022-10-26T11:47:47;2.70;;;1.20;;
11414;SDS011;5763;42.714;23.244;2022-10-26T11:50:17;1.88;;;1.15;;
11414;SDS011;5763;42.714;23.244;2022-10-26T11:52:48;1.60;;;1.00;;
11414;SDS011;5763;42.714;23.244;2022-10-26T11:55:18;1.10;;;1.00;;
11414;SDS011;5763;42.714;23.244;2022-10-26T11:57:48;1.75;;;1.25;;
11414;SDS011;5763;42.714;23.244;2022-10-26T12:00:17;1.38;;;1.15;;
11414;SDS011;5763;42.714;23.244;2022-10-26T12:02:47;2.90;;;0.98;;
11414;SDS011;5763;42.714;23.244;2022-10-26T12:05:18;1.35;;;1.00;;
11414;SDS011;5763;42.714;23.244;2022-10-26T12:07:49;1.58;;;1.08;;
11414;SDS011;5763;42.714;23.244;2022-10-26T12:10:24;0.85;;;0.77;;
11414;SDS011;5763;42.714;23.244;2022-10-26T12:12:56;3.25;;;1.10;;
11414;SDS011;5763;42.714;23.244;2022-10-26T12:15:31;1.52;;;0.90;;
11414;SDS011;5763;42.714;23.244;2022-10-26T12:18:10;2.33;;;0.98;;
11414;SDS011;5763;42.714;23.244;2022-10-26T12:20:54;2.70;;;1.02;;
11414;SDS011;5763;42.714;23.244;2022-10-26T12:23:26;0.82;;;0.80;;
11414;SDS011;5763;42.714;23.244;2022-10-26T12:29:12;1.77;;;0.73;;
11414;SDS011;5763;42.714;23.244;2022-10-26T12:31:50;2.45;;;1.08;;
11414;SDS011;5763;42.714;23.244;2022-10-26T12:34:22;4.10;;;1.17;;
11414;SDS011;5763;42.714;23.244;2022-10-26T12:39:37;3.60;;;0.80;;
11414;SDS011;5763;42.714;23.244;2022-10-26T12:42:09;1.05;;;0.82;;
11414;SDS011;5763;42.714;23.244;2022-10-26T12:45:01;1.33;;;0.70;;
11414;SDS011;5763;42.714;23.244;2022-10-26T12:50:30;2.75;;;0.90;;
11414;SDS011;5763;42.714;23.244;2022-10-26T12:52:57;1.15;;;0.90;;
11414;SDS011;5763;42.714;23.244;2022-10-26T12:58:39;4.30;;;1.90;;
11414;SDS011;5763;42.714;23.244;2022-10-26T13:04:58;2.33;;;1.15;;
11414;SDS011;5763;42.714;23.244;2022-10-26T13:07:42;3.75;;;1.00;;
11414;SDS011;5763;42.714;23.244;2022-10-26T13:10:16;1.35;;;0.90;;
11414;SDS011;5763;42.714;23.244;2022-10-26T13:12:47;1.30;;;1.20;;
11414;SDS011;5763;42.714;23.244;2022-10-26T13:15:23;2.05;;;1.30;;
11414;SDS011;5763;42.714;23.244;2022-10-26T13:18:00;2.40;;;1.48;;
11414;SDS011;5763;42.714;23.244;2022-10-26T13:20:33;2.70;;;1.02;;
11414;SDS011;5763;42.714;23.244;2022-10-26T13:23:02;2.35;;;1.15;;
11414;SDS011;5763;42.714;23.244;2022-10-26T13:25:41;3.53;;;1.52;;
11414;SDS011;5763;42.714;23.244;2022-10-26T13:28:30;2.30;;;1.20;;
11414;SDS011;5763;42.714;23.244;2022-10-26T13:30:59;3.13;;;1.10;;
11414;SDS011;5763;42.714;23.244;2022-10-26T13:33:28;2.38;;;1.10;;
11414;SDS011;5763;42.714;23.244;2022-10-26T13:36:05;1.40;;;1.00;;
11414;SDS011;5763;42.714;23.244;2022-10-26T13:38:43;1.25;;;0.80;;
11414;SDS011;5763;42.714;23.244;2022-10-26T13:41:16;2.17;;;0.80;;
11414;SDS011;5763;42.714;23.244;2022-10-26T13:43:48;2.35;;;0.80;;
11414;SDS011;5763;42.714;23.244;2022-10-26T13:46:26;4.20;;;1.33;;
11414;SDS011;5763;42.714;23.244;2022-10-26T13:48:57;1.67;;;1.02;;
11414;SDS011;5763;42.714;23.244;2022-10-26T13:51:33;2.25;;;1.02;;
11414;SDS011;5763;42.714;23.244;2022-10-26T13:54:11;1.27;;;0.85;;
11414;SDS011;5763;42.714;23.244;2022-10-26T13:56:48;2.78;;;1.20;;
11414;SDS011;5763;42.714;23.244;2022-10-26T13:59:25;2.05;;;0.90;;
11414;SDS011;5763;42.714;23.244;2022-10-26T14:02:04;1.88;;;1.10;;
11414;SDS011;5763;42.714;23.244;2022-10-26T14:04:32;4.50;;;1.20;;
11414;SDS011;5763;42.714;23.244;2022-10-26T14:06:59;2.17;;;1.10;;
11414;SDS011;5763;42.714;23.244;2022-10-26T14:09:27;2.10;;;1.50;;
11414;SDS011;5763;42.714;23.244;2022-10-26T14:11:55;2.83;;;2.00;;
11414;SDS011;5763;42.714;23.244;2022-10-26T14:14:26;3.55;;;3.30;;
11414;SDS011;5763;42.714;23.244;2022-10-26T14:16:56;3.75;;;3.40;;
11414;SDS011;5763;42.714;23.244;2022-10-26T14:19:24;3.90;;;3.50;;
11414;SDS011;5763;42.714;23.244;2022-10-26T14:21:53;5.47;;;2.58;;
11414;SDS011;5763;42.714;23.244;2022-10-26T14:24:22;4.32;;;2.72;;
11414;SDS011;5763;42.714;23.244;2022-10-26T14:26:53;7.53;;;4.10;;
11414;SDS011;5763;42.714;23.244;2022-10-26T14:29:21;4.43;;;3.25;;
11414;SDS011;5763;42.714;23.244;2022-10-26T14:31:49;3.03;;;2.17;;
11414;SDS011;5763;42.714;23.244;2022-10-26T14:34:17;3.72;;;2.60;;
11414;SDS011;5763;42.714;23.244;2022-10-26T14:36:45;3.65;;;2.05;;
11414;SDS011;5763;42.714;23.244;2022-10-26T14:39:16;2.70;;;1.85;;
11414;SDS011;5763;42.714;23.244;2022-10-26T14:41:48;3.25;;;2.00;;
11414;SDS011;5763;42.714;23.244;2022-10-26T14:44:20;3.22;;;1.70;;
11414;SDS011;5763;42.714;23.244;2022-10-26T14:46:48;3.45;;;1.58;;
11414;SDS011;5763;42.714;23.244;2022-10-26T14:49:16;4.00;;;1.70;;
11414;SDS011;5763;42.714;23.244;2022-10-26T14:51:46;1.95;;;1.42;;
11414;SDS011;5763;42.714;23.244;2022-10-26T14:54:18;3.38;;;1.60;;
11414;SDS011;5763;42.714;23.244;2022-10-26T14:56:47;3.42;;;1.48;;
11414;SDS011;5763;42.714;23.244;2022-10-26T14:59:18;3.63;;;1.77;;
11414;SDS011;5763;42.714;23.244;2022-10-26T15:01:50;14.13;;;8.50;;
11414;SDS011;5763;42.714;23.244;2022-10-26T15:04:27;8.05;;;5.50;;
11414;SDS011;5763;42.714;23.244;2022-10-26T15:07:00;12.48;;;8.13;;
11414;SDS011;5763;42.714;23.244;2022-10-26T15:09:37;9.10;;;6.68;;
11414;SDS011;5763;42.714;23.244;2022-10-26T15:12:13;11.45;;;4.80;;
11414;SDS011;5763;42.714;23.244;2022-10-26T15:14:46;5.95;;;3.17;;
11414;SDS011;5763;42.714;23.244;2022-10-26T15:17:17;7.22;;;3.47;;
11414;SDS011;5763;42.714;23.244;2022-10-26T15:19:47;3.08;;;2.72;;
11414;SDS011;5763;42.714;23.244;2022-10-26T15:22:18;2.95;;;1.83;;
11414;SDS011;5763;42.714;23.244;2022-10-26T15:24:49;4.13;;;1.90;;
11414;SDS011;5763;42.714;23.244;2022-10-26T15:27:18;2.88;;;2.15;;
11414;SDS011;5763;42.714;23.244;2022-10-26T15:29:47;4.13;;;1.92;;
11414;SDS011;5763;42.714;23.244;2022-10-26T15:32:18;5.45;;;1.90;;
11414;SDS011;5763;42.714;23.244;2022-10-26T15:37:39;3.58;;;1.80;;
11414;SDS011;5763;42.714;23.244;2022-10-26T15:40:06;5.45;;;1.80;;
11414;SDS011;5763;42.714;23.244;2022-10-26T15:42:34;2.20;;;1.55;;
11414;SDS011;5763;42.714;23.244;2022-10-26T15:45:04;3.55;;;1.83;;
11414;SDS011;5763;42.714;23.244;2022-10-26T15:47:40;3.22;;;1.90;;
11414;SDS011;5763;42.714;23.244;2022-10-26T15:50:10;3.97;;;1.75;;
11414;SDS011;5763;42.714;23.244;2022-10-26T15:52:38;2.45;;;1.45;;
11414;SDS011;5763;42.714;23.244;2022-10-26T15:55:06;1.83;;;1.30;;